Time;durP1;ratioP1;P1;durP2;ratioP2;P2;SDS_P1;SDS_P2;PMS_P1;PMS_P2;Temp;Humidity;BMP_temperature;BMP_pressure;BME280_temperature;BME280_humidity;BME280_pressure;Samples;Min_cycle;Max_cycle;Signal;HPM_P1;HPM_P2
2021/05/20 00:01:31;;;;;;;1.37;0.10;;;;;;;12.48;81.67;98367.39;1723961;80;21085;-53
2021/05/20 00:03:58;;;;;;;1.65;0.00;;;;;;;12.48;81.68;98364.70;1723292;80;21100;-53
2021/05/20 00:06:25;;;;;;;1.27;0.10;;;;;;;12.49;81.72;98361.51;1723139;80;21111;-53
2021/05/20 00:08:51;;;;;;;0.60;0.10;;;;;;;12.50;81.67;98364.58;1718216;80;21144;-53
2021/05/20 00:11:18;;;;;;;0.00;0.00;;;;;;;12.49;81.57;98366.42;1720105;80;21124;-52
2021/05/20 00:13:45;;;;;;;0.10;0.10;;;;;;;12.48;81.54;98359.78;1722252;80;22453;-53
2021/05/20 00:16:11;;;;;;;0.95;0.30;;;;;;;12.47;81.55;98367.02;1724780;80;21463;-53
2021/05/20 00:18:38;;;;;;;0.08;0.08;;;;;;;12.44;81.46;98365.03;1722507;80;21624;-53
2021/05/20 00:21:05;;;;;;;0.13;0.10;;;;;;;12.42;81.43;98366.98;1721865;80;21526;-54
2021/05/20 00:23:31;;;;;;;0.00;0.00;;;;;;;12.38;81.42;98365.03;1721524;80;21523;-53
2021/05/20 00:25:57;;;;;;;0.23;0.10;;;;;;;12.36;81.42;98360.72;1724593;80;21574;-53
2021/05/20 00:28:23;;;;;;;0.10;0.10;;;;;;;12.36;81.49;98368.81;1666663;84;21207;-53
2021/05/20 00:30:50;;;;;;;1.62;0.10;;;;;;;12.37;81.48;98370.54;1669708;83;21087;-53
2021/05/20 00:33:17;;;;;;;0.10;0.08;;;;;;;12.38;81.41;98377.17;1726381;80;21194;-53
2021/05/20 00:35:43;;;;;;;0.33;0.10;;;;;;;12.39;81.40;98371.29;1727666;80;21131;-53
2021/05/20 00:38:11;;;;;;;0.20;0.10;;;;;;;12.35;81.36;98372.49;1731084;80;21681;-53
2021/05/20 00:40:37;;;;;;;0.20;0.10;;;;;;;12.34;81.39;98370.28;1735374;80;21008;-53
2021/05/20 00:43:04;;;;;;;0.30;0.10;;;;;;;12.34;81.33;98374.81;1728996;80;21375;-53
2021/05/20 00:45:31;;;;;;;2.83;0.10;;;;;;;12.31;81.28;98376.42;1730367;80;22568;-52
2021/05/20 00:47:57;;;;;;;1.00;0.10;;;;;;;12.29;81.24;98375.19;1664518;84;21168;-51
2021/05/20 00:50:23;;;;;;;0.20;0.10;;;;;;;12.26;81.24;98381.29;1726821;80;21124;-52
2021/05/20 00:52:50;;;;;;;1.10;0.10;;;;;;;12.24;81.22;98377.87;1727093;80;21151;-52
2021/05/20 00:55:19;;;;;;;0.20;0.10;;;;;;;12.23;81.25;98372.11;1728506;80;21472;-52
2021/05/20 00:57:44;;;;;;;0.40;0.20;;;;;;;12.21;81.20;98377.61;1728808;80;20953;-52
2021/05/20 01:00:12;;;;;;;0.10;0.10;;;;;;;12.20;81.23;98377.23;1730431;80;20945;-52
2021/05/20 01:02:40;;;;;;;0.20;0.10;;;;;;;12.22;81.29;98377.98;1727331;80;21123;-51
2021/05/20 01:05:09;;;;;;;0.35;0.20;;;;;;;12.22;81.32;98366.33;1739897;80;20936;-52
2021/05/20 01:07:36;;;;;;;0.68;0.20;;;;;;;12.22;81.31;98370.37;1726214;80;21107;-51
2021/05/20 01:10:07;;;;;;;1.50;0.25;;;;;;;12.22;81.33;98375.29;1727368;80;21127;-52
2021/05/20 01:12:33;;;;;;;1.62;0.10;;;;;;;12.23;81.30;98374.80;1694868;82;20977;-52
2021/05/20 01:15:00;;;;;;;0.40;0.20;;;;;;;12.24;81.34;98373.34;1668573;83;21027;-52
2021/05/20 01:17:27;;;;;;;0.95;0.15;;;;;;;12.22;81.28;98364.50;1680830;83;20985;-52
2021/05/20 01:19:53;;;;;;;1.12;0.20;;;;;;;12.21;81.32;98366.82;1731493;80;20929;-51
2021/05/20 01:22:20;;;;;;;0.50;0.20;;;;;;;12.22;81.31;98364.98;1732687;80;20996;-52
2021/05/20 01:24:47;;;;;;;0.10;0.10;;;;;;;12.22;81.29;98356.89;1734076;80;22053;-52
2021/05/20 01:27:14;;;;;;;0.30;0.20;;;;;;;12.21;81.33;98360.08;1733651;80;21510;-51
2021/05/20 01:29:43;;;;;;;0.25;0.20;;;;;;;12.20;81.27;98366.93;1732380;80;20948;-51
2021/05/20 01:32:10;;;;;;;1.60;0.20;;;;;;;12.16;81.23;98365.47;1723388;80;20992;-52
2021/05/20 01:34:37;;;;;;;0.50;0.20;;;;;;;12.12;81.23;98367.03;1731778;81;20996;-52
2021/05/20 01:37:06;;;;;;;2.00;0.20;;;;;;;12.08;81.25;98362.84;1729030;80;21251;-52
2021/05/20 01:39:32;;;;;;;0.98;0.20;;;;;;;12.05;81.35;98367.63;1729226;80;20978;-52
2021/05/20 01:41:58;;;;;;;1.75;0.20;;;;;;;12.06;81.38;98366.65;1670738;84;20985;-52
2021/05/20 01:44:25;;;;;;;0.33;0.20;;;;;;;12.05;81.38;98363.58;1731655;80;21040;-52
2021/05/20 01:46:53;;;;;;;0.40;0.20;;;;;;;12.08;81.36;98363.33;1728663;80;21298;-52
2021/05/20 01:49:20;;;;;;;2.25;0.42;;;;;;;12.08;81.25;98360.14;1727410;80;20980;-52
2021/05/20 01:51:46;;;;;;;0.40;0.20;;;;;;;12.08;81.20;98360.14;1730909;80;21057;-52
2021/05/20 01:54:13;;;;;;;0.55;0.20;;;;;;;12.06;81.13;98364.81;1730240;80;20957;-51
2021/05/20 01:56:40;;;;;;;1.75;0.20;;;;;;;12.05;81.09;98359.53;1730367;80;20953;-52
2021/05/20 01:59:09;;;;;;;4.12;0.20;;;;;;;12.04;81.04;98359.16;1731692;80;20909;-52
2021/05/20 02:01:37;;;;;;;0.42;0.20;;;;;;;12.02;81.02;98360.61;1729404;80;20901;-51
2021/05/20 02:04:04;;;;;;;0.93;0.20;;;;;;;12.01;81.07;98360.23;1724926;80;21628;-53
2021/05/20 02:06:31;;;;;;;2.00;0.20;;;;;;;12.04;81.05;98356.45;1728935;80;20921;-52
2021/05/20 02:08:59;;;;;;;0.28;0.20;;;;;;;12.05;80.96;98359.53;1727423;80;21502;-52
2021/05/20 02:11:25;;;;;;;1.00;0.20;;;;;;;12.03;80.79;98357.44;1731783;80;21557;-52
2021/05/20 02:13:52;;;;;;;1.42;0.20;;;;;;;12.00;80.79;98355.81;1729107;80;21501;-51
2021/05/20 02:16:18;;;;;;;0.37;0.20;;;;;;;11.97;80.80;98355.21;1726986;80;21043;-51
2021/05/20 02:18:45;;;;;;;0.70;0.28;;;;;;;11.95;80.81;98358.50;1723987;80;21139;-55
2021/05/20 02:21:12;;;;;;;2.25;0.23;;;;;;;11.94;80.81;98352.25;1720358;80;21082;-52
2021/05/20 02:23:38;;;;;;;0.75;0.20;;;;;;;11.94;80.81;98362.17;1724854;80;21088;-52
2021/05/20 02:26:05;;;;;;;0.70;0.20;;;;;;;11.93;80.74;98365.36;1726505;80;21115;-51
2021/05/20 02:28:32;;;;;;;0.30;0.20;;;;;;;11.91;80.68;98356.52;1689269;82;21124;-52
2021/05/20 02:30:58;;;;;;;1.12;0.10;;;;;;;11.93;80.70;98362.66;1681047;82;21112;-52
2021/05/20 02:33:24;;;;;;;0.90;0.20;;;;;;;11.95;80.71;98364.76;1663631;84;21136;-52
2021/05/20 02:35:51;;;;;;;0.20;0.20;;;;;;;11.96;80.63;98367.83;1719730;80;21284;-52
2021/05/20 02:38:17;;;;;;;0.60;0.30;;;;;;;11.97;80.49;98358.77;1720919;80;21107;-52
2021/05/20 02:40:43;;;;;;;1.57;0.20;;;;;;;11.96;80.39;98366.48;1725841;80;21593;-52
2021/05/20 02:43:10;;;;;;;3.08;0.20;;;;;;;11.94;80.27;98360.34;1723170;80;21552;-52
2021/05/20 02:45:37;;;;;;;1.65;0.20;;;;;;;11.94;80.27;98359.48;1723528;80;21109;-52
2021/05/20 02:48:04;;;;;;;1.07;0.20;;;;;;;11.91;80.12;98355.69;1720788;80;21151;-52
2021/05/20 02:50:31;;;;;;;2.40;0.10;;;;;;;11.89;80.12;98354.94;1719800;80;21001;-52
2021/05/20 02:52:57;;;;;;;3.08;0.20;;;;;;;11.88;80.09;98354.07;1723006;80;20997;-53
2021/05/20 02:55:24;;;;;;;0.35;0.20;;;;;;;11.88;80.00;98357.25;1721636;80;21406;-51
2021/05/20 02:57:53;;;;;;;6.42;0.30;;;;;;;11.85;80.08;98361.52;1721391;80;21378;-52
2021/05/20 03:00:19;;;;;;;0.40;0.20;;;;;;;11.86;79.96;98356.02;1723439;80;20965;-53
2021/05/20 03:02:49;;;;;;;0.42;0.23;;;;;;;11.84;79.96;98352.56;1722155;80;21469;-52
2021/05/20 03:05:16;;;;;;;2.75;0.20;;;;;;;11.85;79.80;98349.38;1726480;80;22086;-52
2021/05/20 03:07:43;;;;;;;2.17;0.23;;;;;;;11.82;79.73;98358.59;1726311;80;20976;-52
2021/05/20 03:10:12;;;;;;;0.20;0.13;;;;;;;11.78;79.76;98355.73;1719051;80;21190;-52
2021/05/20 03:12:39;;;;;;;2.40;0.20;;;;;;;11.77;79.65;98359.40;1725059;80;20984;-51
2021/05/20 03:15:07;;;;;;;0.40;0.10;;;;;;;11.73;79.59;98365.98;1720997;80;21100;-52
2021/05/20 03:17:33;;;;;;;1.92;0.20;;;;;;;11.69;79.66;98365.82;1724654;80;22738;-52
2021/05/20 03:20:00;;;;;;;0.20;0.20;;;;;;;11.68;79.54;98360.91;1722013;80;21039;-53
2021/05/20 03:22:27;;;;;;;0.60;0.20;;;;;;;11.67;79.65;98357.84;1693555;82;20938;-52
2021/05/20 03:24:53;;;;;;;0.65;0.20;;;;;;;11.70;79.59;98356.77;1667234;83;21487;-52
2021/05/20 03:27:20;;;;;;;0.40;0.20;;;;;;;11.74;79.43;98364.52;1721799;80;21159;-52
2021/05/20 03:29:46;;;;;;;0.50;0.30;;;;;;;11.77;79.37;98361.23;1721992;80;22961;-53
2021/05/20 03:32:12;;;;;;;0.72;0.20;;;;;;;11.78;79.16;98364.31;1723687;80;21437;-52
2021/05/20 03:34:39;;;;;;;0.60;0.20;;;;;;;11.81;79.09;98354.17;1728336;80;21672;-53
2021/05/20 03:37:07;;;;;;;0.42;0.20;;;;;;;11.84;78.81;98355.75;1725530;80;21088;-51
2021/05/20 03:39:34;;;;;;;0.50;0.20;;;;;;;11.83;78.64;98353.54;1729167;80;21701;-52
2021/05/20 03:42:01;;;;;;;1.70;0.20;;;;;;;11.84;78.50;98362.48;1728072;80;21178;-52
2021/05/20 03:44:28;;;;;;;1.07;0.20;;;;;;;11.86;78.30;98355.16;1725875;80;21024;-52
2021/05/20 03:46:54;;;;;;;0.20;0.15;;;;;;;11.87;78.28;98358.22;1669522;83;21586;-53
2021/05/20 03:49:22;;;;;;;0.72;0.20;;;;;;;11.87;78.22;98359.09;1682631;83;21594;-52
2021/05/20 03:51:50;;;;;;;1.98;0.20;;;;;;;11.89;78.19;98357.63;1731437;80;21140;-53
2021/05/20 03:54:16;;;;;;;0.30;0.20;;;;;;;11.91;78.03;98357.86;1733185;80;21702;-52
2021/05/20 03:56:44;;;;;;;0.85;0.20;;;;;;;11.93;78.11;98369.89;1728661;80;21163;-52
2021/05/20 03:59:10;;;;;;;2.65;0.20;;;;;;;11.94;78.14;98369.77;1668864;84;21135;-52
2021/05/20 04:01:39;;;;;;;1.90;0.53;;;;;;;11.96;78.20;98369.18;1677968;82;21688;-52
2021/05/20 04:04:06;;;;;;;0.95;0.15;;;;;;;11.98;78.14;98371.28;1731770;80;20964;-52
2021/05/20 04:06:33;;;;;;;1.35;0.20;;;;;;;11.99;78.09;98377.02;1734720;80;20988;-53
2021/05/20 04:08:59;;;;;;;0.33;0.20;;;;;;;11.98;78.11;98372.63;1731975;80;21012;-52
2021/05/20 04:11:26;;;;;;;0.40;0.20;;;;;;;11.99;78.12;98372.97;1728789;80;21080;-52
2021/05/20 04:13:52;;;;;;;3.65;0.20;;;;;;;12.03;78.08;98370.43;1732757;80;20988;-52
2021/05/20 04:16:23;;;;;;;2.17;0.20;;;;;;;12.03;78.02;98379.87;1731109;80;20965;-52
2021/05/20 04:18:47;;;;;;;0.37;0.20;;;;;;;12.04;78.01;98381.59;1728810;80;21447;-52
2021/05/20 04:21:14;;;;;;;0.37;0.10;;;;;;;12.05;77.90;98387.36;1731737;80;21534;-52
2021/05/20 04:23:46;;;;;;;0.80;0.20;;;;;;;12.04;77.80;98386.13;1731605;80;20909;-53
2021/05/20 04:26:12;;;;;;;0.98;0.20;;;;;;;12.04;77.74;98391.03;1735053;80;21424;-53
2021/05/20 04:28:39;;;;;;;0.23;0.10;;;;;;;12.06;77.75;98386.39;1732467;80;21324;-52
2021/05/20 04:31:05;;;;;;;0.90;0.20;;;;;;;12.08;77.71;98385.76;1733167;80;21125;-52
2021/05/20 04:33:31;;;;;;;0.30;0.10;;;;;;;12.11;77.54;98389.59;1730180;80;21012;-53
2021/05/20 04:35:57;;;;;;;0.50;0.25;;;;;;;12.12;77.37;98389.96;1729285;80;20957;-52
2021/05/20 04:38:24;;;;;;;0.65;0.20;;;;;;;12.11;77.42;98391.42;1732520;80;20984;-52
2021/05/20 04:40:50;;;;;;;0.37;0.20;;;;;;;12.11;77.45;98390.94;1734917;80;20976;-52
2021/05/20 04:43:17;;;;;;;0.93;0.20;;;;;;;12.15;77.50;98396.97;1734710;80;21054;-52
2021/05/20 04:45:46;;;;;;;0.20;0.20;;;;;;;12.18;77.38;98398.55;1731905;80;20924;-51
2021/05/20 04:48:12;;;;;;;1.40;0.17;;;;;;;12.22;77.36;98396.88;1725546;80;20909;-52
2021/05/20 04:50:40;;;;;;;1.95;0.20;;;;;;;12.29;77.28;98398.12;1733643;80;21500;-53
2021/05/20 04:53:07;;;;;;;1.60;0.30;;;;;;;12.34;77.14;98401.80;1729495;80;20980;-52
2021/05/20 04:55:33;;;;;;;0.70;0.28;;;;;;;12.38;77.14;98400.11;1731584;80;21626;-52
2021/05/20 04:57:59;;;;;;;0.40;0.20;;;;;;;12.39;76.96;98399.63;1735205;80;21361;-52
2021/05/20 05:00:26;;;;;;;0.78;0.30;;;;;;;12.42;77.01;98399.37;1733293;80;21545;-52
2021/05/20 05:02:52;;;;;;;0.62;0.20;;;;;;;12.46;76.91;98400.87;1728279;80;21009;-53
2021/05/20 05:05:19;;;;;;;1.65;0.20;;;;;;;12.51;76.86;98398.66;1733420;80;21620;-52
2021/05/20 05:07:46;;;;;;;1.37;0.25;;;;;;;12.52;76.72;98397.69;1732606;80;21002;-53
2021/05/20 05:10:12;;;;;;;0.50;0.30;;;;;;;12.57;76.74;98404.95;1701720;80;20937;-52
2021/05/20 05:12:39;;;;;;;0.30;0.30;;;;;;;12.61;76.61;98407.77;1728257;80;20970;-53
2021/05/20 05:15:07;;;;;;;1.05;0.50;;;;;;;12.65;76.42;98409.27;1671217;84;22025;-53
2021/05/20 05:17:33;;;;;;;2.40;0.20;;;;;;;12.71;76.59;98413.31;1691825;82;21124;-52
2021/05/20 05:20:00;;;;;;;0.37;0.20;;;;;;;12.79;76.41;98409.04;1729677;80;21163;-52
2021/05/20 05:22:26;;;;;;;0.42;0.20;;;;;;;12.91;76.41;98408.58;1725365;80;21096;-51
2021/05/20 05:24:52;;;;;;;2.75;0.20;;;;;;;13.06;76.36;98411.89;1726602;80;21107;-52
2021/05/20 05:27:19;;;;;;;1.12;0.20;;;;;;;13.19;75.85;98409.95;1729726;80;21202;-52
2021/05/20 05:29:45;;;;;;;0.30;0.20;;;;;;;13.33;75.04;98416.48;1733246;80;21297;-52
2021/05/20 05:32:11;;;;;;;0.85;0.20;;;;;;;13.44;75.08;98411.58;1728270;80;22332;-53
2021/05/20 05:34:38;;;;;;;0.40;0.20;;;;;;;13.56;74.54;98412.77;1689429;82;21764;-53
2021/05/20 05:37:04;;;;;;;0.60;0.23;;;;;;;13.66;74.09;98413.38;1726002;81;22064;-53
2021/05/20 05:39:31;;;;;;;0.30;0.20;;;;;;;13.74;73.74;98417.66;1719722;81;21142;-52
2021/05/20 05:41:57;;;;;;;0.40;0.25;;;;;;;13.80;73.24;98418.01;1672509;83;21129;-53
2021/05/20 05:44:23;;;;;;;0.30;0.20;;;;;;;13.88;72.66;98427.70;1720603;81;22367;-53
2021/05/20 05:46:51;;;;;;;1.05;0.20;;;;;;;13.95;72.37;98426.72;1721742;81;21652;-52
2021/05/20 05:51:54;;;;;;;0.47;0.25;;;;;;;14.20;70.97;98425.05;1674722;83;21717;-52
2021/05/20 05:54:15;;;;;;;0.53;0.28;;;;;;;14.29;70.43;98419.35;1734907;80;20964;-52
2021/05/20 05:56:41;;;;;;;0.57;0.33;;;;;;;14.29;70.43;98419.35;1730849;80;21640;-52
2021/05/20 05:59:07;;;;;;;0.20;0.20;;;;;;;14.33;69.96;98416.73;1725964;80;21204;-53
2021/05/20 06:01:34;;;;;;;1.52;0.30;;;;;;;14.32;69.46;98433.47;1700651;82;21097;-53
2021/05/20 06:04:01;;;;;;;0.50;0.30;;;;;;;14.32;69.46;98433.47;1734034;80;21088;-52
2021/05/20 06:06:27;;;;;;;2.50;0.20;;;;;;;14.33;69.13;98435.19;1725795;80;21043;-53
2021/05/20 06:08:55;;;;;;;0.35;0.20;;;;;;;14.32;69.15;98433.95;1693256;82;22537;-52
2021/05/20 06:11:21;;;;;;;0.50;0.30;;;;;;;14.32;69.45;98447.49;1672633;83;21112;-52
2021/05/20 06:13:47;;;;;;;1.45;0.30;;;;;;;14.32;69.45;98447.49;1722379;81;21159;-52
2021/05/20 06:16:15;;;;;;;0.40;0.20;;;;;;;14.32;69.45;98447.49;1724393;81;20995;-53
2021/05/20 06:18:41;;;;;;;1.57;0.20;;;;;;;14.33;69.11;98450.56;1726512;81;21132;-52
2021/05/20 06:21:08;;;;;;;1.02;0.30;;;;;;;14.31;68.47;98461.52;1727395;81;20993;-52
2021/05/20 06:23:34;;;;;;;2.83;0.30;;;;;;;14.29;68.84;98452.66;1726355;81;20945;-52
2021/05/20 06:26:01;;;;;;;0.33;0.20;;;;;;;14.35;69.27;98454.02;1677998;83;20977;-52
2021/05/20 06:28:27;;;;;;;3.50;0.30;;;;;;;14.35;69.27;98454.02;1730921;80;21139;-51
2021/05/20 06:30:53;;;;;;;3.27;0.30;;;;;;;14.46;69.20;98470.22;1734839;80;21458;-53
2021/05/20 06:33:20;;;;;;;0.82;0.30;;;;;;;14.52;68.24;98468.37;1726736;80;21170;-52
2021/05/20 06:35:47;;;;;;;1.37;0.30;;;;;;;14.57;67.74;98459.36;1731415;80;21131;-52
2021/05/20 06:38:13;;;;;;;2.33;0.23;;;;;;;14.65;67.46;98470.39;1672353;84;21120;-52
2021/05/20 06:40:40;;;;;;;2.60;0.20;;;;;;;14.69;67.14;98469.66;1679205;83;21873;-52
2021/05/20 06:43:06;;;;;;;0.33;0.20;;;;;;;14.73;66.62;98460.25;1681907;83;21120;-52
2021/05/20 06:45:34;;;;;;;2.58;0.30;;;;;;;14.74;66.30;98476.87;1673198;84;21154;-53
2021/05/20 06:48:03;;;;;;;1.30;0.20;;;;;;;14.75;66.32;98476.75;1726116;80;21088;-51
2021/05/20 06:50:29;;;;;;;3.37;0.30;;;;;;;14.81;66.40;98473.14;1729822;80;21498;-52
2021/05/20 06:52:56;;;;;;;1.15;0.20;;;;;;;14.87;65.71;98477.56;1730670;80;22308;-52
2021/05/20 06:55:23;;;;;;;1.47;0.23;;;;;;;14.92;65.18;98494.77;1724351;80;21703;-52
2021/05/20 07:00:35;;;;;;;4.25;0.30;;;;;;;15.01;65.25;98490.77;1673326;84;20989;-53
2021/05/20 07:03:04;;;;;;;1.75;0.20;;;;;;;15.05;65.15;98494.95;1690127;82;21092;-52
2021/05/20 07:05:30;;;;;;;0.82;0.30;;;;;;;15.08;65.05;98491.95;1731728;80;21043;-52
2021/05/20 07:07:58;;;;;;;1.10;0.20;;;;;;;15.12;65.41;98490.72;1732982;80;20968;-52
2021/05/20 07:10:25;;;;;;;0.68;0.20;;;;;;;15.19;65.14;98484.25;1673751;84;20982;-52
2021/05/20 07:12:53;;;;;;;3.40;0.30;;;;;;;15.24;64.69;98489.27;1683644;83;20992;-52
2021/05/20 07:15:19;;;;;;;3.15;0.30;;;;;;;15.25;64.18;98489.63;1690956;82;21479;-52
2021/05/20 07:17:45;;;;;;;0.37;0.20;;;;;;;15.24;64.15;98494.19;1740002;80;20983;-53
2021/05/20 07:20:13;;;;;;;1.20;0.15;;;;;;;15.24;64.14;98494.69;1732221;80;20952;-52
2021/05/20 07:22:39;;;;;;;2.33;0.30;;;;;;;15.22;63.78;98496.69;1729130;80;21682;-52
2021/05/20 07:25:07;;;;;;;1.75;0.20;;;;;;;15.15;63.89;98493.14;1729027;81;21875;-52
2021/05/20 07:27:33;;;;;;;0.30;0.30;;;;;;;15.11;63.87;98493.55;1729509;80;20957;-52
2021/05/20 07:30:00;;;;;;;0.23;0.23;;;;;;;15.09;64.23;98499.59;1738593;80;20968;-53
2021/05/20 07:32:27;;;;;;;0.20;0.20;;;;;;;15.03;63.75;98496.92;1728035;80;21510;-52
2021/05/20 07:34:54;;;;;;;2.25;0.30;;;;;;;14.96;63.33;98497.09;1724725;81;21037;-53
2021/05/20 07:37:20;;;;;;;0.37;0.28;;;;;;;14.91;63.51;98512.00;1726162;81;21477;-52
2021/05/20 07:39:48;;;;;;;2.25;0.30;;;;;;;14.89;64.02;98509.92;1726310;81;20949;-52
2021/05/20 07:42:14;;;;;;;1.30;0.20;;;;;;;14.88;64.33;98513.15;1724806;81;20937;-52
2021/05/20 07:44:43;;;;;;;0.40;0.23;;;;;;;14.88;64.66;98508.23;1726247;81;21012;-52
2021/05/20 07:47:10;;;;;;;0.37;0.20;;;;;;;14.87;64.69;98522.76;1723726;81;20996;-52
2021/05/20 07:49:38;;;;;;;0.57;0.30;;;;;;;14.87;64.68;98521.41;1724825;81;21001;-52
2021/05/20 07:52:05;;;;;;;2.67;0.30;;;;;;;14.86;64.88;98529.16;1692045;82;21172;-52
2021/05/20 07:54:33;;;;;;;0.40;0.30;;;;;;;14.85;64.97;98521.53;1671519;83;21083;-53
2021/05/20 07:56:59;;;;;;;4.10;0.33;;;;;;;14.82;64.72;98525.84;1675549;83;21084;-53
2021/05/20 07:59:25;;;;;;;1.60;0.40;;;;;;;14.76;64.47;98522.30;1723692;80;21090;-52
2021/05/20 08:02:03;;;;;;;0.85;0.30;;;;;;;14.72;64.67;98526.25;1729932;80;21171;-52
2021/05/20 08:04:24;;;;;;;2.12;0.20;;;;;;;14.70;64.39;98540.44;1730787;80;21103;-53
2021/05/20 08:06:55;;;;;;;1.98;0.20;;;;;;;14.71;64.47;98538.96;1728698;80;21103;-53
2021/05/20 08:11:50;;;;;;;1.37;0.20;;;;;;;14.84;64.48;98550.95;1681220;81;21628;-52
2021/05/20 08:14:17;;;;;;;1.62;0.30;;;;;;;14.92;64.57;98551.66;1644219;85;21148;-52
2021/05/20 08:16:43;;;;;;;1.00;0.40;;;;;;;14.99;64.66;98551.50;1628941;86;21147;-52
2021/05/20 08:19:10;;;;;;;2.05;0.40;;;;;;;15.01;64.78;98550.88;1628266;86;21183;-53
2021/05/20 08:21:37;;;;;;;1.20;0.40;;;;;;;15.00;64.66;98558.64;1671576;84;21092;-52
2021/05/20 08:24:05;;;;;;;1.52;0.30;;;;;;;14.95;64.76;98563.11;1618351;86;21816;-53
2021/05/20 08:26:32;;;;;;;2.25;0.30;;;;;;;14.89;64.57;98565.45;1617985;86;20952;-52
2021/05/20 08:28:58;;;;;;;1.45;0.28;;;;;;;14.85;64.86;98564.88;1632275;86;20972;-52
2021/05/20 08:31:25;;;;;;;3.20;0.35;;;;;;;14.85;65.06;98569.43;1633263;85;21008;-52
2021/05/20 08:33:52;;;;;;;0.40;0.30;;;;;;;14.84;65.25;98570.41;1666628;84;21135;-53
2021/05/20 08:36:19;;;;;;;2.67;0.50;;;;;;;14.84;65.49;98573.98;1663032;84;21178;-53
2021/05/20 08:38:45;;;;;;;1.50;0.30;;;;;;;14.87;65.41;98578.30;1664539;84;21175;-52
2021/05/20 08:41:14;;;;;;;0.98;0.30;;;;;;;14.87;64.97;98579.66;1662948;84;21146;-53
2021/05/20 08:43:42;;;;;;;3.33;0.50;;;;;;;14.87;64.82;98572.39;1668898;84;20960;-52
2021/05/20 08:46:08;;;;;;;0.85;0.30;;;;;;;14.89;64.40;98573.09;1666494;84;21115;-51
2021/05/20 08:48:34;;;;;;;5.35;0.40;;;;;;;14.94;64.38;98569.52;1628444;85;22395;-52
2021/05/20 08:51:02;;;;;;;1.70;0.30;;;;;;;15.08;64.60;98565.63;1626209;84;20996;-53
2021/05/20 08:53:28;;;;;;;3.25;0.30;;;;;;;15.29;64.87;98571.06;1607700;86;21660;-52
2021/05/20 08:55:55;;;;;;;2.02;0.40;;;;;;;15.49;64.75;98563.41;1664345;84;21131;-53
2021/05/20 08:58:25;;;;;;;1.47;0.30;;;;;;;15.70;63.78;98568.86;1663894;84;21091;-52
2021/05/20 09:00:50;;;;;;;0.28;0.20;;;;;;;15.83;61.82;98570.83;1665433;84;21337;-53
2021/05/20 09:03:16;;;;;;;1.12;0.30;;;;;;;15.86;61.61;98578.72;1663889;84;20980;-52
2021/05/20 09:05:43;;;;;;;0.98;0.30;;;;;;;15.85;61.36;98572.42;1665117;84;21151;-52
2021/05/20 09:08:14;;;;;;;6.12;0.30;;;;;;;15.85;61.14;98577.86;1665912;84;21114;-52
2021/05/20 09:10:42;;;;;;;0.88;0.30;;;;;;;15.84;61.68;98580.20;1667016;84;21003;-52
2021/05/20 09:13:16;;;;;;;2.05;0.30;;;;;;;15.85;61.83;98580.57;1667935;84;21067;-53
2021/05/20 09:15:45;;;;;;;;;;;;;;;15.86;61.52;98592.28;1637221;85;21045;-52
2021/05/20 09:18:18;;;;;;;1.30;0.30;;;;;;;15.83;61.01;98592.55;1603607;87;20262;-52
2021/05/20 09:20:48;;;;;;;1.82;0.30;;;;;;;15.83;60.99;98595.25;1670469;84;20959;-52
2021/05/20 09:23:27;;;;;;;0.40;0.33;;;;;;;15.92;61.55;98604.44;1664358;84;21138;-51
2021/05/20 09:26:04;;;;;;;1.27;0.37;;;;;;;16.02;61.17;98591.28;1666819;84;21194;-51
2021/05/20 09:28:41;;;;;;;1.80;0.40;;;;;;;16.15;61.43;98603.29;1665974;84;21151;-51
2021/05/20 09:31:10;;;;;;;2.20;0.28;;;;;;;16.25;60.81;98590.09;1630744;85;21151;-53
2021/05/20 09:33:37;;;;;;;0.55;0.35;;;;;;;16.37;60.66;98601.71;1644653;84;21187;-52
2021/05/20 09:36:04;;;;;;;1.90;0.40;;;;;;;16.45;60.89;98607.31;1662849;84;21230;-52
2021/05/20 09:38:35;;;;;;;0.30;0.20;;;;;;;16.48;60.78;98607.05;1668959;84;21125;-52
2021/05/20 09:41:02;;;;;;;2.50;0.55;;;;;;;16.55;59.75;98608.20;1663678;84;21167;-52
2021/05/20 09:45:54;;;;;;;3.22;0.30;;;;;;;16.74;59.86;98590.27;1808184;77;28420;-53
2021/05/20 09:48:22;;;;;;;0.85;0.85;;;;;;;16.79;59.62;98587.47;1794983;77;21689;-53
2021/05/20 09:50:53;;;;;;;1.65;0.33;;;;;;;16.88;58.90;98595.28;1794616;77;20954;-53
2021/05/20 09:53:22;;;;;;;8.40;0.30;;;;;;;16.90;58.20;98591.92;1797972;77;21096;-53
2021/05/20 09:56:00;;;;;;;2.85;0.30;;;;;;;16.95;57.60;98605.94;1796765;77;21060;-53
2021/05/20 09:58:31;;;;;;;0.20;0.20;;;;;;;16.91;56.49;98605.87;1797815;77;21783;-53
2021/05/20 10:01:01;;;;;;;2.15;0.20;;;;;;;16.88;55.76;98604.29;1795911;78;20894;-53
2021/05/20 10:03:29;;;;;;;1.22;0.23;;;;;;;16.88;56.06;98611.58;1797522;77;21119;-53
2021/05/20 10:05:59;;;;;;;1.30;0.30;;;;;;;16.81;55.34;98615.87;1798652;77;21126;-53
2021/05/20 10:08:26;;;;;;;0.30;0.20;;;;;;;16.74;55.48;98612.86;1793393;77;21357;-53
2021/05/20 10:10:54;;;;;;;0.50;0.30;;;;;;;16.64;55.43;98607.41;1798741;77;20938;-53
2021/05/20 10:13:25;;;;;;;2.10;0.20;;;;;;;16.59;55.55;98620.49;1798557;77;20945;-54
2021/05/20 10:15:53;;;;;;;0.30;0.20;;;;;;;16.53;55.54;98606.12;1799868;77;20963;-53
2021/05/20 10:18:22;;;;;;;2.60;0.30;;;;;;;16.54;55.52;98617.84;1799343;77;20944;-53
2021/05/20 10:20:51;;;;;;;0.35;0.25;;;;;;;16.55;55.83;98626.36;1797088;77;20909;-52
2021/05/20 10:23:22;;;;;;;0.72;0.30;;;;;;;16.58;55.50;98619.30;1799003;77;20973;-53
2021/05/20 10:25:50;;;;;;;0.40;0.30;;;;;;;16.62;55.26;98622.12;1799564;77;20901;-53
2021/05/20 10:28:17;;;;;;;1.55;0.30;;;;;;;16.67;54.94;98615.78;1802991;77;21445;-53
2021/05/20 10:30:46;;;;;;;2.92;0.23;;;;;;;16.70;54.19;98624.13;1800013;77;21712;-53
2021/05/20 10:33:13;;;;;;;0.42;0.20;;;;;;;16.75;53.61;98613.72;1797993;77;20921;-54
2021/05/20 10:35:50;;;;;;;0.60;0.30;;;;;;;16.76;53.39;98616.27;1800263;77;20934;-53
2021/05/20 10:38:31;;;;;;;0.47;0.20;;;;;;;16.81;53.11;98615.87;1793295;77;20985;-53
2021/05/20 10:41:13;;;;;;;3.37;0.70;;;;;;;16.88;53.37;98614.30;1797272;77;20995;-53
2021/05/20 10:43:42;;;;;;;2.02;0.20;;;;;;;16.93;53.39;98616.08;1777759;78;20965;-53
2021/05/20 10:46:12;;;;;;;0.85;0.30;;;;;;;16.99;52.81;98630.48;1775629;79;21036;-53
2021/05/20 10:48:52;;;;;;;1.30;0.30;;;;;;;17.02;52.25;98631.55;1779376;78;20973;-54
2021/05/20 10:51:30;;;;;;;1.40;0.40;;;;;;;17.01;51.91;98625.78;1776671;78;21021;-54
2021/05/20 10:54:06;;;;;;;1.05;0.28;;;;;;;16.96;52.38;98626.19;1775018;78;21166;-53
2021/05/20 10:56:42;;;;;;;0.82;0.30;;;;;;;16.92;52.56;98627.48;1774001;79;21088;-53
2021/05/20 10:59:33;;;;;;;0.33;0.20;;;;;;;16.87;53.28;98632.96;1775815;78;21049;-53
2021/05/20 11:01:59;;;;;;;0.33;0.20;;;;;;;16.82;53.42;98632.05;1772011;78;21141;-52
2021/05/20 11:04:37;;;;;;;1.10;0.70;;;;;;;16.84;53.78;98637.34;1774566;78;21061;-53
2021/05/20 11:07:04;;;;;;;3.90;0.30;;;;;;;16.88;54.06;98654.57;1776210;78;21104;-53
2021/05/20 11:09:48;;;;;;;0.82;0.30;;;;;;;16.96;53.99;98645.21;1775891;78;20992;-53
2021/05/20 11:12:17;;;;;;;1.75;0.30;;;;;;;17.08;54.08;98645.95;1775538;78;21125;-53
2021/05/20 11:14:46;;;;;;;1.37;0.20;;;;;;;17.20;53.66;98639.36;1778347;79;20981;-52
2021/05/20 11:17:33;;;;;;;1.95;0.20;;;;;;;17.29;53.50;98630.85;1774536;78;21236;-53
2021/05/20 11:20:27;;;;;;;0.30;0.30;;;;;;;17.39;52.94;98631.22;1771875;80;21618;-53
2021/05/20 11:23:19;;;;;;;0.60;0.20;;;;;;;17.50;53.70;98630.71;1741928;78;21120;-54
2021/05/20 11:25:46;;;;;;;1.65;0.30;;;;;;;17.56;52.57;98636.43;1776441;80;21045;-54
2021/05/20 11:28:14;;;;;;;2.80;0.20;;;;;;;17.61;51.86;98636.84;1773386;78;21088;-53
2021/05/20 11:30:40;;;;;;;0.40;0.20;;;;;;;17.69;52.12;98641.62;1749307;78;21084;-53
2021/05/20 11:33:17;;;;;;;1.85;0.20;;;;;;;17.75;52.15;98641.02;1773913;79;21530;-53
2021/05/20 11:38:32;;;;;;;1.67;0.28;;;;;;;18.01;52.50;98647.56;1698307;82;20990;-53
2021/05/20 11:41:14;;;;;;;1.45;0.23;;;;;;;18.17;51.81;98641.99;1722479;81;21125;-53
2021/05/20 11:43:41;;;;;;;1.40;0.30;;;;;;;18.26;51.32;98643.32;1702910;82;21609;-53
2021/05/20 11:46:23;;;;;;;0.30;0.30;;;;;;;18.37;51.52;98632.22;1707236;82;21655;-53
2021/05/20 11:49:04;;;;;;;0.30;0.20;;;;;;;18.49;50.61;98646.52;1709062;82;21134;-53
2021/05/20 11:51:46;;;;;;;0.80;0.20;;;;;;;18.55;49.21;98645.91;1715251;81;21599;-53